createdAt,value
2019-02-21T00:01:35.629Z,1.32
2019-02-21T00:05:37.508Z,1.25
2019-02-21T00:09:39.401Z,1.20
2019-02-21T00:13:41.284Z,1.18
2019-02-21T00:17:43.200Z,1.16
2019-02-21T00:21:45.081Z,1.07
2019-02-21T00:25:46.969Z,1.00
2019-02-21T00:29:49.131Z,0.93
2019-02-21T00:33:51.010Z,0.86
2019-02-21T00:37:52.954Z,0.78
2019-02-21T00:41:54.790Z,0.75
2019-02-21T00:45:56.682Z,0.68
2019-02-21T00:49:58.586Z,0.65
2019-02-21T00:54:00.477Z,0.55
2019-02-21T00:58:02.365Z,0.51
2019-02-21T01:02:04.372Z,0.47
2019-02-21T01:06:06.428Z,0.42
2019-02-21T01:10:09.360Z,0.41
2019-02-21T01:14:12.226Z,0.45
2019-02-21T01:18:14.103Z,0.36
2019-02-21T01:22:17.119Z,0.30
2019-02-21T01:26:19.076Z,0.26
2019-02-21T01:30:21.016Z,0.20
2019-02-21T01:34:23.032Z,0.19
2019-02-21T01:38:25.681Z,0.13
2019-02-21T01:42:27.573Z,0.12
2019-02-21T01:46:29.466Z,0.07
2019-02-21T01:50:31.707Z,0.05
2019-02-21T01:54:33.746Z,-0.01
2019-02-21T01:58:53.999Z,-0.04
2019-02-21T02:02:55.911Z,-0.06
2019-02-21T02:06:57.828Z,-0.06
2019-02-21T02:10:59.749Z,-0.03
2019-02-21T02:15:04.020Z,-0.01
2019-02-21T02:19:06.078Z,0.03
2019-02-21T02:23:08.964Z,0.02
2019-02-21T02:27:10.859Z,0.02
2019-02-21T02:31:22.060Z,0.01
2019-02-21T02:35:16.422Z,-0.03
2019-02-21T02:39:18.483Z,-0.07
2019-02-21T02:43:20.360Z,-0.09
2019-02-21T02:47:22.261Z,-0.11
2019-02-21T02:51:25.397Z,-0.11
2019-02-21T02:55:27.306Z,-0.18
2019-02-21T02:59:40.319Z,-0.25
2019-02-21T03:03:32.821Z,-0.25
2019-02-21T03:07:34.745Z,-0.29
2019-02-21T03:11:36.653Z,-0.34
2019-02-21T03:15:39.559Z,-0.39
2019-02-21T03:19:41.464Z,-0.40
2019-02-21T03:23:43.372Z,-0.39
2019-02-21T03:27:45.371Z,-0.42
2019-02-21T03:31:54.598Z,-0.45
2019-02-21T03:35:50.951Z,-0.46
2019-02-21T03:39:52.843Z,-0.50
2019-02-21T03:43:54.783Z,-0.48
2019-02-21T03:47:56.677Z,-0.52
2019-02-21T03:51:58.643Z,-0.59
2019-02-21T03:56:00.520Z,-0.61
2019-02-21T04:00:02.557Z,-0.61
2019-02-21T04:04:05.845Z,-0.63
2019-02-21T04:08:07.792Z,-0.66
2019-02-21T04:12:09.669Z,-0.72
2019-02-21T04:16:11.575Z,-0.76
2019-02-21T04:20:13.564Z,-0.76
2019-02-21T04:24:15.469Z,-0.84
2019-02-21T04:28:17.407Z,-0.91
2019-02-21T04:32:19.456Z,-0.94
2019-02-21T04:36:23.456Z,-0.96
2019-02-21T04:40:26.595Z,-0.99
2019-02-21T04:44:28.501Z,-0.97
2019-02-21T04:48:30.413Z,-1.04
2019-02-21T04:52:32.338Z,-1.08
2019-02-21T04:56:34.254Z,-1.09
2019-02-21T05:00:36.227Z,-1.10
2019-02-21T05:04:38.142Z,-1.13
2019-02-21T05:08:40.055Z,-1.14
2019-02-21T05:12:41.969Z,-1.06
2019-02-21T05:16:44.690Z,-1.04
2019-02-21T05:20:46.661Z,-0.98
2019-02-21T05:24:48.587Z,-0.95
2019-02-21T05:28:50.505Z,-0.86
2019-02-21T05:32:59.826Z,-0.83
2019-02-21T05:37:06.465Z,-0.79
2019-02-21T05:41:10.001Z,-0.78
2019-02-21T05:45:25.597Z,-0.76
2019-02-21T05:49:35.340Z,-0.78
2019-02-21T05:53:38.892Z,-0.77
2019-02-21T05:57:48.507Z,-0.79
2019-02-21T06:01:57.809Z,-0.77
2019-02-21T06:06:10.125Z,-0.76
2019-02-21T06:10:17.259Z,-0.80
2019-02-21T06:14:32.885Z,-0.87
2019-02-21T06:18:43.519Z,-0.89
2019-02-21T06:23:05.147Z,-0.94
2019-02-21T06:27:08.686Z,-0.95
2019-02-21T06:31:10.915Z,-0.97
2019-02-21T06:35:12.996Z,-0.98
2019-02-21T06:39:14.919Z,-0.98
2019-02-21T06:43:16.959Z,-0.98
2019-02-21T06:47:18.848Z,-0.92
2019-02-21T06:51:20.767Z,-0.86
2019-02-21T06:55:22.686Z,-0.79
2019-02-21T06:59:25.869Z,-0.73
2019-02-21T07:03:29.071Z,-0.62
2019-02-21T07:07:31.010Z,-0.56
2019-02-21T07:11:32.930Z,-0.46
2019-02-21T07:15:34.849Z,-0.39
2019-02-21T07:19:36.766Z,-0.36
2019-02-21T07:23:43.466Z,-0.29
2019-02-21T07:27:42.337Z,-0.26
2019-02-21T07:31:44.298Z,-0.19
2019-02-21T07:35:46.203Z,-0.20
2019-02-21T07:39:50.767Z,-0.24
2019-02-21T07:43:52.022Z,-0.17
2019-02-21T07:47:54.059Z,-0.15
2019-02-21T07:51:55.968Z,-0.09
2019-02-21T07:55:57.872Z,0.03
2019-02-21T07:59:59.815Z,0.11
2019-02-21T08:04:01.707Z,0.29
2019-02-21T08:08:03.618Z,0.27
2019-02-21T08:12:06.505Z,0.28
2019-02-21T08:16:08.406Z,0.37
2019-02-21T08:20:12.715Z,0.50
2019-02-21T08:24:14.660Z,0.63
2019-02-21T08:28:16.548Z,0.80
2019-02-21T08:32:20.087Z,1.03
2019-02-21T08:36:22.002Z,1.28
2019-02-21T08:40:25.129Z,1.55
2019-02-21T08:44:28.922Z,1.87
2019-02-21T08:48:30.682Z,2.16
2019-02-21T08:52:32.578Z,2.30
2019-02-21T08:56:34.481Z,2.41
2019-02-21T09:00:36.584Z,2.51
2019-02-21T09:04:38.500Z,2.54
2019-02-21T09:08:40.392Z,2.65
2019-02-21T09:12:47.134Z,2.75
2019-02-21T09:16:46.072Z,2.89
2019-02-21T09:20:47.983Z,3.15
2019-02-21T09:24:49.917Z,3.46
2019-02-21T09:28:51.805Z,3.79
2019-02-21T09:32:53.717Z,4.16
2019-02-21T09:36:55.623Z,4.52
2019-02-21T09:40:57.527Z,4.91
2019-02-21T09:44:59.427Z,5.46
2019-02-21T09:49:03.022Z,5.91
2019-02-21T09:53:06.153Z,6.50
2019-02-21T09:57:13.329Z,7.00
2019-02-21T10:01:11.687Z,7.35
2019-02-21T10:05:13.778Z,7.54
2019-02-21T10:09:16.632Z,7.64
2019-02-21T10:13:18.556Z,7.94
2019-02-21T10:17:20.462Z,8.20
2019-02-21T10:21:22.471Z,8.35
2019-02-21T10:25:30.356Z,8.63
2019-02-21T10:29:32.240Z,9.06
2019-02-21T10:33:34.157Z,9.70
2019-02-21T10:37:36.050Z,9.76
2019-02-21T10:41:37.983Z,10.24
2019-02-21T10:45:47.420Z,10.22
2019-02-21T10:49:43.512Z,10.14
2019-02-21T10:53:45.433Z,10.02
2019-02-21T10:57:47.792Z,9.93
2019-02-21T11:01:49.696Z,9.85
2019-02-21T11:05:51.601Z,9.79
2019-02-21T11:09:53.496Z,9.66
2019-02-21T11:13:55.413Z,9.64
2019-02-21T11:17:57.352Z,9.90
2019-02-21T11:21:59.261Z,10.29
2019-02-21T11:26:01.739Z,10.69
2019-02-21T11:30:05.095Z,10.68
2019-02-21T11:34:07.012Z,10.76
2019-02-21T11:38:08.969Z,10.84
2019-02-21T11:42:10.883Z,11.13
2019-02-21T11:46:12.771Z,11.38
2019-02-21T11:50:17.299Z,11.37
2019-02-21T11:54:26.483Z,11.51
2019-02-21T11:58:22.856Z,11.45
2019-02-21T12:02:26.029Z,11.35
2019-02-21T12:06:27.959Z,11.13
2019-02-21T12:10:29.875Z,11.21
2019-02-21T12:14:31.794Z,11.25
2019-02-21T12:18:33.726Z,11.11
2019-02-21T12:22:35.694Z,11.05
2019-02-21T12:26:37.546Z,11.03
2019-02-21T12:30:39.465Z,10.98
2019-02-21T12:34:41.394Z,10.58
2019-02-21T12:38:43.344Z,10.51
2019-02-21T12:42:45.273Z,10.69
2019-02-21T12:46:47.243Z,10.77
2019-02-21T12:50:49.140Z,11.12
2019-02-21T12:54:51.856Z,11.32
2019-02-21T12:58:54.822Z,11.07
2019-02-21T13:02:56.754Z,10.87
2019-02-21T13:06:58.670Z,10.78
2019-02-21T13:11:00.595Z,10.65
2019-02-21T13:15:02.517Z,10.36
2019-02-21T13:19:04.501Z,10.30
2019-02-21T13:23:06.427Z,10.16
2019-02-21T13:27:08.329Z,10.20
2019-02-21T13:31:10.247Z,10.34
2019-02-21T13:35:15.341Z,10.43
2019-02-21T13:39:17.243Z,10.35
2019-02-21T13:43:23.791Z,10.53
2019-02-21T13:47:26.276Z,10.57
2019-02-21T13:51:28.199Z,10.58
2019-02-21T13:55:30.116Z,10.59
2019-02-21T13:59:34.783Z,10.61
2019-02-21T14:03:35.708Z,10.51
2019-02-21T14:07:37.604Z,10.47
2019-02-21T14:11:39.569Z,10.56
2019-02-21T14:15:41.563Z,10.48
2019-02-21T14:19:44.451Z,10.47
2019-02-21T14:23:47.351Z,10.28
2019-02-21T14:27:49.269Z,10.34
2019-02-21T14:31:51.220Z,10.39
2019-02-21T14:35:53.111Z,10.34
2019-02-21T14:39:55.051Z,10.24
2019-02-21T14:43:56.942Z,10.17
2019-02-21T14:47:58.852Z,10.12
2019-02-21T14:52:02.011Z,10.07
2019-02-21T14:56:04.088Z,9.98
2019-02-21T15:00:16.116Z,9.92
2019-02-21T15:04:18.269Z,9.86
2019-02-21T15:08:22.205Z,9.64
2019-02-21T15:12:24.141Z,9.65
2019-02-21T15:16:26.336Z,9.73
2019-02-21T15:20:36.369Z,9.74
2019-02-21T15:24:31.852Z,9.37
2019-02-21T15:28:33.759Z,9.57
2019-02-21T15:32:35.659Z,9.56
2019-02-21T15:36:38.499Z,9.31
2019-02-21T15:40:43.410Z,9.22
2019-02-21T15:44:45.253Z,9.21
2019-02-21T15:48:47.157Z,9.18
2019-02-21T15:52:49.539Z,9.24
2019-02-21T15:56:51.527Z,9.23
2019-02-21T16:00:53.448Z,9.15
2019-02-21T16:04:55.346Z,9.04
2019-02-21T16:08:57.260Z,8.94
2019-02-21T16:12:59.540Z,8.79
2019-02-21T16:17:01.760Z,8.77
2019-02-21T16:21:03.646Z,8.77
2019-02-21T16:25:12.693Z,8.68
2019-02-21T16:29:14.706Z,8.66
2019-02-21T16:33:16.614Z,8.66
2019-02-21T16:37:18.502Z,8.57
2019-02-21T16:41:20.425Z,8.42
2019-02-21T16:45:23.428Z,8.38
2019-02-21T16:49:26.298Z,8.35
2019-02-21T16:53:28.290Z,8.25
2019-02-21T16:57:30.195Z,8.25
2019-02-21T17:01:32.084Z,8.08
2019-02-21T17:05:34.237Z,8.01
2019-02-21T17:09:36.145Z,7.92
2019-02-21T17:13:39.143Z,7.95
2019-02-21T17:17:41.035Z,7.89
2019-02-21T17:21:42.937Z,7.77
2019-02-21T17:25:44.833Z,7.73
2019-02-21T17:29:46.745Z,7.60
2019-02-21T17:33:48.646Z,7.57
2019-02-21T17:37:50.548Z,7.42
2019-02-21T17:41:52.519Z,7.31
2019-02-21T17:45:54.465Z,7.23
2019-02-21T17:49:56.370Z,7.20
2019-02-21T17:53:58.331Z,7.10
2019-02-21T17:58:00.236Z,7.01
2019-02-21T18:02:02.251Z,6.85
2019-02-21T18:06:04.163Z,6.76
2019-02-21T18:10:13.546Z,6.73
2019-02-21T18:14:15.448Z,6.63
2019-02-21T18:18:17.464Z,6.77
2019-02-21T18:22:19.411Z,6.81
2019-02-21T18:26:21.323Z,6.93
2019-02-21T18:30:23.895Z,7.01
2019-02-21T18:34:26.402Z,7.08
2019-02-21T18:38:28.456Z,7.28
2019-02-21T18:42:30.369Z,7.39
2019-02-21T18:46:32.272Z,7.42
2019-02-21T18:50:38.267Z,7.51
2019-02-21T18:54:37.775Z,7.62
2019-02-21T18:58:39.695Z,7.66
2019-02-21T19:02:42.567Z,7.69
2019-02-21T19:06:44.466Z,7.73
2019-02-21T19:10:46.378Z,7.71
2019-02-21T19:14:48.292Z,7.68
2019-02-21T19:18:50.199Z,7.65
2019-02-21T19:22:52.104Z,7.60
2019-02-21T19:26:53.991Z,7.57
2019-02-21T19:31:06.104Z,7.50
2019-02-21T19:35:09.564Z,7.54
2019-02-21T19:39:12.503Z,7.41
2019-02-21T19:43:14.433Z,7.35
2019-02-21T19:47:16.311Z,7.18
2019-02-21T19:51:18.212Z,7.05
2019-02-21T19:55:20.125Z,7.03
2019-02-21T19:59:22.040Z,7.14
2019-02-21T20:03:24.091Z,7.04
2019-02-21T20:07:26.525Z,6.97
2019-02-21T20:11:29.305Z,6.97
2019-02-21T20:15:31.317Z,6.89
2019-02-21T20:19:33.280Z,6.85
2019-02-21T20:23:35.179Z,6.85
2019-02-21T20:27:37.086Z,6.89
2019-02-21T20:31:38.991Z,6.82
2019-02-21T20:35:40.883Z,6.86
2019-02-21T20:39:42.791Z,6.88
2019-02-21T20:43:44.697Z,6.81
2019-02-21T20:47:46.614Z,6.80
2019-02-21T20:51:48.496Z,6.79
2019-02-21T20:55:50.415Z,6.78
2019-02-21T20:59:52.316Z,6.74
2019-02-21T21:03:54.248Z,6.74
2019-02-21T21:07:56.158Z,6.83
2019-02-21T21:11:58.113Z,6.82
2019-02-21T21:16:00.022Z,6.90
2019-02-21T21:20:01.934Z,6.92
2019-02-21T21:24:05.437Z,6.97
2019-02-21T21:28:07.457Z,6.97
2019-02-21T21:32:10.242Z,6.98
2019-02-21T21:36:12.132Z,7.14
2019-02-21T21:40:17.074Z,7.15
2019-02-21T21:44:18.991Z,7.14
2019-02-21T21:48:20.906Z,7.27
2019-02-21T21:52:22.894Z,7.22
2019-02-21T21:56:24.791Z,7.24
2019-02-21T22:00:26.956Z,7.27
2019-02-21T22:04:28.848Z,7.19
2019-02-21T22:08:30.779Z,7.18
2019-02-21T22:12:32.801Z,7.18
2019-02-21T22:16:34.707Z,7.17
2019-02-21T22:20:37.377Z,7.16
2019-02-21T22:24:39.269Z,7.21
2019-02-21T22:28:41.206Z,7.15
2019-02-21T22:32:43.108Z,7.19
2019-02-21T22:36:45.015Z,7.17
2019-02-21T22:40:46.977Z,7.16
2019-02-21T22:44:48.861Z,7.13
2019-02-21T22:48:50.804Z,7.09
2019-02-21T22:52:52.691Z,7.10
2019-02-21T22:56:54.805Z,7.07
2019-02-21T23:01:01.669Z,7.14
2019-02-21T23:05:23.571Z,7.07
2019-02-21T23:09:28.222Z,7.09
2019-02-21T23:13:30.294Z,7.09
2019-02-21T23:17:32.190Z,7.09
2019-02-21T23:21:34.180Z,7.09
2019-02-21T23:25:36.092Z,7.12
2019-02-21T23:29:38.196Z,7.15
2019-02-21T23:33:41.727Z,7.09
2019-02-21T23:37:43.624Z,7.09
2019-02-21T23:41:45.561Z,7.07
2019-02-21T23:45:47.451Z,7.10
2019-02-21T23:49:49.364Z,7.12
2019-02-21T23:53:51.308Z,7.09
2019-02-21T23:57:53.605Z,7.05
